Time;durP1;ratioP1;P1;durP2;ratioP2;P2;SDS_P1;SDS_P2;PMS_P1;PMS_P2;Temp;Humidity;BMP_temperature;BMP_pressure;BME280_temperature;BME280_humidity;BME280_pressure;Samples;Min_cycle;Max_cycle;Signal;HPM_P1;HPM_P2
2022/08/10 00:01:51;;;;;;;2.50;1.40;;;;;;;;;;4989860;28;20056;-68
2022/08/10 00:04:20;;;;;;;2.05;1.45;;;;;;;;;;4990150;28;20530;-68
2022/08/10 00:06:50;;;;;;;2.50;1.55;;;;;;;;;;5016369;28;20046;-68
2022/08/10 00:09:16;;;;;;;2.15;1.73;;;;;;;;;;5005938;28;20050;-68
2022/08/10 00:11:43;;;;;;;2.25;1.50;;;;;;;;;;5002595;28;20444;-69
2022/08/10 00:14:09;;;;;;;2.63;1.52;;;;;;;;;;5004037;28;20046;-69
2022/08/10 00:16:36;;;;;;;2.25;1.63;;;;;;;;;;5000800;28;20047;-68
2022/08/10 00:19:03;;;;;;;2.60;1.80;;;;;;;;;;5000853;28;20057;-68
2022/08/10 00:21:29;;;;;;;2.55;1.30;;;;;;;;;;5000214;28;20057;-69
2022/08/10 00:23:56;;;;;;;2.78;1.50;;;;;;;;;;5002876;28;20056;-68
2022/08/10 00:26:22;;;;;;;1.70;1.30;;;;;;;;;;5001902;28;20050;-68
2022/08/10 00:28:49;;;;;;;2.10;1.48;;;;;;;;;;4999487;28;20061;-68
2022/08/10 00:31:16;;;;;;;1.40;1.30;;;;;;;;;;5002415;28;20416;-68
2022/08/10 00:33:42;;;;;;;1.67;1.38;;;;;;;;;;4999644;28;20421;-68
2022/08/10 00:36:09;;;;;;;2.30;1.70;;;;;;;;;;5002512;28;20057;-68
2022/08/10 00:38:36;;;;;;;2.70;1.50;;;;;;;;;;4998942;28;20493;-68
2022/08/10 00:41:03;;;;;;;1.88;1.40;;;;;;;;;;5007250;28;20046;-68
2022/08/10 00:43:30;;;;;;;1.70;1.40;;;;;;;;;;4983353;28;20052;-69
2022/08/10 00:45:56;;;;;;;2.13;1.73;;;;;;;;;;5007736;28;20100;-68
2022/08/10 00:48:29;;;;;;;2.17;1.30;;;;;;;;;;4984532;28;20053;-68
2022/08/10 00:50:58;;;;;;;2.40;1.60;;;;;;;;;;4990791;28;20492;-68
2022/08/10 00:53:26;;;;;;;2.05;1.48;;;;;;;;;;5001288;28;20067;-68
2022/08/10 00:55:53;;;;;;;2.30;1.60;;;;;;;;;;5002667;28;20062;-68
2022/08/10 00:58:39;;;;;;;3.22;1.70;;;;;;;;;;4988261;28;20058;-68
2022/08/10 01:01:06;;;;;;;2.83;1.58;;;;;;;;;;4977032;28;20049;-68
2022/08/10 01:03:37;;;;;;;2.25;1.50;;;;;;;;;;5011763;28;20060;-68
2022/08/10 01:06:53;;;;;;;5.65;1.98;;;;;;;;;;5011393;28;20062;-68
2022/08/10 01:09:30;;;;;;;1.70;1.60;;;;;;;;;;4995252;28;20046;-68
2022/08/10 01:12:15;;;;;;;1.73;1.50;;;;;;;;;;5010475;28;20463;-68
2022/08/10 01:15:31;;;;;;;4.82;1.52;;;;;;;;;;5015767;28;20050;-69
2022/08/10 01:18:07;;;;;;;2.97;1.50;;;;;;;;;;5015352;28;20420;-68
2022/08/10 01:20:41;;;;;;;3.65;2.08;;;;;;;;;;5014217;28;20057;-69
2022/08/10 01:23:27;;;;;;;2.90;1.42;;;;;;;;;;5014614;28;20054;-68
2022/08/10 01:26:03;;;;;;;1.60;1.50;;;;;;;;;;5014262;28;20064;-68
2022/08/10 01:29:00;;;;;;;2.33;1.67;;;;;;;;;;5029309;28;20386;-68
2022/08/10 01:31:29;;;;;;;3.90;1.63;;;;;;;;;;5003836;28;20058;-68
2022/08/10 01:33:58;;;;;;;5.05;1.80;;;;;;;;;;4989106;28;20054;-68
2022/08/10 01:36:30;;;;;;;1.50;1.40;;;;;;;;;;5013914;28;20054;-69
2022/08/10 01:38:58;;;;;;;3.38;1.85;;;;;;;;;;5013782;28;20401;-68
2022/08/10 01:41:39;;;;;;;1.95;1.80;;;;;;;;;;5013728;28;20062;-69
2022/08/10 01:44:22;;;;;;;2.15;1.60;;;;;;;;;;4999200;28;20050;-68
2022/08/10 01:46:51;;;;;;;1.83;1.70;;;;;;;;;;4998493;28;20057;-68
2022/08/10 01:49:22;;;;;;;3.85;1.63;;;;;;;;;;5013528;28;20133;-69
2022/08/10 01:51:51;;;;;;;3.22;1.67;;;;;;;;;;5005535;28;20050;-68
2022/08/10 01:54:19;;;;;;;1.77;1.50;;;;;;;;;;5014839;28;20057;-68
2022/08/10 01:56:48;;;;;;;2.20;1.60;;;;;;;;;;5013476;28;20562;-68
2022/08/10 01:59:35;;;;;;;1.73;1.52;;;;;;;;;;5014681;28;20108;-68
2022/08/10 02:02:05;;;;;;;2.17;1.77;;;;;;;;;;5013593;28;20046;-68
2022/08/10 02:04:34;;;;;;;2.72;1.73;;;;;;;;;;5005365;28;20046;-68
2022/08/10 02:07:01;;;;;;;1.60;1.50;;;;;;;;;;4978047;28;20081;-68
2022/08/10 02:09:31;;;;;;;3.67;1.80;;;;;;;;;;4977945;28;20050;-68
2022/08/10 02:12:00;;;;;;;2.70;1.73;;;;;;;;;;4978109;28;20054;-68
2022/08/10 02:15:07;;;;;;;2.08;1.63;;;;;;;;;;4980477;28;20505;-68
2022/08/10 02:17:38;;;;;;;3.22;1.73;;;;;;;;;;5035339;22;20061;-67
2022/08/10 02:20:26;;;;;;;1.60;1.50;;;;;;;;;;5001038;28;20058;-68
2022/08/10 02:22:59;;;;;;;1.65;1.55;;;;;;;;;;5028763;28;20508;-68
2022/08/10 02:25:27;;;;;;;2.47;1.80;;;;;;;;;;5013350;28;20050;-68
2022/08/10 02:28:10;;;;;;;1.60;1.50;;;;;;;;;;5013589;28;20054;-67
2022/08/10 02:30:36;;;;;;;2.35;1.80;;;;;;;;;;5013392;28;20052;-68
2022/08/10 02:33:03;;;;;;;2.83;1.95;;;;;;;;;;5013353;28;20060;-68
2022/08/10 02:35:30;;;;;;;1.95;1.75;;;;;;;;;;5030316;28;20524;-68
2022/08/10 02:38:20;;;;;;;1.77;1.60;;;;;;;;;;5040639;28;20046;-67
2022/08/10 02:41:12;;;;;;;1.58;1.48;;;;;;;;;;5000991;28;20125;-68
2022/08/10 02:44:04;;;;;;;5.63;1.40;;;;;;;;;;4995138;28;20101;-68
2022/08/10 02:47:00;;;;;;;1.63;1.42;;;;;;;;;;4993674;28;20054;-68
2022/08/10 02:49:31;;;;;;;2.60;1.73;;;;;;;;;;5009714;28;20053;-68
2022/08/10 02:52:01;;;;;;;1.83;1.55;;;;;;;;;;5009839;28;20073;-68
2022/08/10 02:54:38;;;;;;;2.70;1.80;;;;;;;;;;4993756;28;20093;-68
2022/08/10 02:57:13;;;;;;;2.78;1.42;;;;;;;;;;4977470;28;20057;-67
2022/08/10 02:59:45;;;;;;;3.53;2.00;;;;;;;;;;4993307;28;20076;-68
2022/08/10 03:02:15;;;;;;;2.15;1.70;;;;;;;;;;4993428;28;20480;-68
2022/08/10 03:04:49;;;;;;;2.30;1.92;;;;;;;;;;5012694;28;20046;-68
2022/08/10 03:07:23;;;;;;;3.75;1.73;;;;;;;;;;5028409;28;20116;-68
2022/08/10 03:10:30;;;;;;;3.22;1.90;;;;;;;;;;5026515;28;20042;-68
2022/08/10 03:13:01;;;;;;;1.60;1.40;;;;;;;;;;5026433;28;20064;-68
2022/08/10 03:15:28;;;;;;;1.60;1.50;;;;;;;;;;5022043;28;20050;-68
2022/08/10 03:17:55;;;;;;;2.45;1.73;;;;;;;;;;4992695;28;20054;-67
2022/08/10 03:20:28;;;;;;;3.17;1.42;;;;;;;;;;5008637;28;20046;-68
2022/08/10 03:23:15;;;;;;;1.80;1.70;;;;;;;;;;5007571;28;20440;-67
2022/08/10 03:25:43;;;;;;;2.78;1.77;;;;;;;;;;4992837;28;20053;-68
2022/08/10 03:28:26;;;;;;;2.40;1.60;;;;;;;;;;5016211;28;20475;-67
2022/08/10 03:30:54;;;;;;;2.10;1.50;;;;;;;;;;5012236;28;20053;-68
2022/08/10 03:33:22;;;;;;;4.35;3.22;;;;;;;;;;5028668;28;20137;-67
2022/08/10 03:35:49;;;;;;;7.28;4.43;;;;;;;;;;5013949;28;20050;-68
2022/08/10 03:38:36;;;;;;;5.55;4.28;;;;;;;;;;5013209;28;20058;-67
2022/08/10 03:41:04;;;;;;;3.60;3.30;;;;;;;;;;5012325;28;20050;-67
2022/08/10 03:43:31;;;;;;;2.45;2.25;;;;;;;;;;4996125;28;20068;-69
2022/08/10 03:45:59;;;;;;;2.63;2.42;;;;;;;;;;5012113;28;20104;-67
2022/08/10 03:48:27;;;;;;;2.40;2.20;;;;;;;;;;5011944;28;20053;-67
2022/08/10 03:51:13;;;;;;;2.50;2.30;;;;;;;;;;5013052;28;20050;-67
2022/08/10 03:53:40;;;;;;;2.65;2.40;;;;;;;;;;5011953;28;20049;-67
2022/08/10 03:56:27;;;;;;;1.98;1.80;;;;;;;;;;5011868;28;20061;-68
2022/08/10 03:58:58;;;;;;;3.10;2.20;;;;;;;;;;5002848;28;20100;-67
2022/08/10 04:01:25;;;;;;;2.25;1.88;;;;;;;;;;4989202;28;20052;-68
2022/08/10 04:04:12;;;;;;;2.67;2.10;;;;;;;;;;4991618;28;20081;-68
2022/08/10 04:06:44;;;;;;;2.38;2.17;;;;;;;;;;4991961;28;20125;-67
2022/08/10 04:09:11;;;;;;;1.90;1.60;;;;;;;;;;4990909;28;20058;-68
2022/08/10 04:11:39;;;;;;;2.92;2.00;;;;;;;;;;4992544;28;20105;-67
2022/08/10 04:14:06;;;;;;;4.53;2.05;;;;;;;;;;4993153;28;20078;-67
2022/08/10 04:16:53;;;;;;;3.58;1.73;;;;;;;;;;4992928;28;20046;-68
2022/08/10 04:19:20;;;;;;;2.85;1.88;;;;;;;;;;4992885;28;20428;-67
2022/08/10 04:21:50;;;;;;;3.45;2.05;;;;;;;;;;4991610;28;20050;-67
2022/08/10 04:24:19;;;;;;;2.47;1.90;;;;;;;;;;4992747;28;20516;-67
2022/08/10 04:26:52;;;;;;;2.25;1.90;;;;;;;;;;5011211;28;20100;-68
2022/08/10 04:29:19;;;;;;;4.55;2.03;;;;;;;;;;5010975;28;20056;-67
2022/08/10 04:31:45;;;;;;;2.22;2.05;;;;;;;;;;5027438;28;20056;-68
2022/08/10 04:34:12;;;;;;;3.88;2.50;;;;;;;;;;5011383;28;20542;-68
2022/08/10 04:36:39;;;;;;;3.72;2.55;;;;;;;;;;5027659;28;20057;-67
2022/08/10 04:39:05;;;;;;;2.92;2.35;;;;;;;;;;5022425;28;20548;-67
2022/08/10 04:41:32;;;;;;;2.15;1.90;;;;;;;;;;4991673;28;20066;-67
2022/08/10 04:43:59;;;;;;;2.00;1.80;;;;;;;;;;5007980;28;20057;-68
2022/08/10 04:46:25;;;;;;;1.90;1.73;;;;;;;;;;5007381;28;20108;-67
2022/08/10 04:49:12;;;;;;;4.07;2.00;;;;;;;;;;4992401;28;20505;-68
2022/08/10 04:51:59;;;;;;;3.20;2.00;;;;;;;;;;5004880;28;20054;-67
2022/08/10 04:54:25;;;;;;;3.45;2.30;;;;;;;;;;4992617;28;20054;-67
2022/08/10 04:56:55;;;;;;;6.28;2.38;;;;;;;;;;5003420;28;20054;-67
2022/08/10 04:59:22;;;;;;;2.00;1.90;;;;;;;;;;4997891;28;20058;-67
2022/08/10 05:01:48;;;;;;;4.82;2.30;;;;;;;;;;4996855;28;20047;-67
2022/08/10 05:04:35;;;;;;;3.13;2.53;;;;;;;;;;5004901;28;20105;-67
2022/08/10 05:07:08;;;;;;;3.53;2.53;;;;;;;;;;4997079;28;20508;-67
2022/08/10 05:09:36;;;;;;;2.45;2.25;;;;;;;;;;4992438;28;20058;-67
2022/08/10 05:12:23;;;;;;;2.10;1.90;;;;;;;;;;4992785;28;20468;-67
2022/08/10 05:14:51;;;;;;;3.42;2.30;;;;;;;;;;5014503;28;20053;-67
2022/08/10 05:17:20;;;;;;;3.92;2.10;;;;;;;;;;5031633;28;20512;-67
2022/08/10 05:19:50;;;;;;;2.40;2.13;;;;;;;;;;5031560;28;20104;-67
2022/08/10 05:22:35;;;;;;;2.58;2.38;;;;;;;;;;5031366;28;20064;-67
2022/08/10 05:25:03;;;;;;;2.05;1.85;;;;;;;;;;5012450;28;20062;-67
2022/08/10 05:27:30;;;;;;;2.78;2.35;;;;;;;;;;4997937;28;20047;-67
2022/08/10 05:29:56;;;;;;;5.20;2.10;;;;;;;;;;5000945;28;20058;-67
2022/08/10 05:32:28;;;;;;;3.30;2.35;;;;;;;;;;5003309;28;20046;-67
2022/08/10 05:34:54;;;;;;;3.45;2.20;;;;;;;;;;4992381;28;20046;-67
2022/08/10 05:37:21;;;;;;;2.47;2.28;;;;;;;;;;4994612;28;20058;-67
2022/08/10 05:40:08;;;;;;;4.07;2.00;;;;;;;;;;5000374;28;20109;-67
2022/08/10 05:42:35;;;;;;;2.55;2.35;;;;;;;;;;5006729;28;20053;-67
2022/08/10 05:45:03;;;;;;;5.13;2.25;;;;;;;;;;5005553;28;20527;-67
2022/08/10 05:47:29;;;;;;;2.50;2.30;;;;;;;;;;5011607;28;20046;-67
2022/08/10 05:50:17;;;;;;;4.03;2.50;;;;;;;;;;5012987;28;20065;-67
2022/08/10 05:52:44;;;;;;;2.20;2.00;;;;;;;;;;5025613;28;20050;-67
2022/08/10 05:55:11;;;;;;;3.72;2.17;;;;;;;;;;5021489;28;20175;-66
2022/08/10 05:57:38;;;;;;;2.92;2.40;;;;;;;;;;5033725;28;20065;-67
2022/08/10 06:00:07;;;;;;;2.67;2.22;;;;;;;;;;5024801;28;20060;-66
2022/08/10 06:02:56;;;;;;;3.53;2.28;;;;;;;;;;5025426;28;20045;-66
2022/08/10 06:05:28;;;;;;;4.88;2.00;;;;;;;;;;5026356;28;20121;-66
2022/08/10 06:08:22;;;;;;;3.13;2.55;;;;;;;;;;5043511;28;20367;-66
2022/08/10 06:10:54;;;;;;;2.20;2.00;;;;;;;;;;5018262;28;20077;-66
2022/08/10 06:16:43;;;;;;;3.88;1.90;;;;;;;;;;5030067;28;20080;-65
2022/08/10 06:19:11;;;;;;;3.35;1.90;;;;;;;;;;5031351;28;20046;-66
2022/08/10 06:21:41;;;;;;;1.90;1.80;;;;;;;;;;5030225;28;20045;-66
2022/08/10 06:24:28;;;;;;;3.15;1.85;;;;;;;;;;5012596;28;20046;-66
2022/08/10 06:26:57;;;;;;;2.70;1.75;;;;;;;;;;5030787;28;20061;-66
2022/08/10 06:29:23;;;;;;;1.83;1.70;;;;;;;;;;5016550;28;20034;-65
2022/08/10 06:31:50;;;;;;;1.70;1.60;;;;;;;;;;5031783;28;20050;-65
2022/08/10 06:34:28;;;;;;;4.13;2.03;;;;;;;;;;5020343;28;20054;-66
2022/08/10 06:36:58;;;;;;;3.38;1.92;;;;;;;;;;5005521;28;20051;-66
2022/08/10 06:39:25;;;;;;;2.42;2.05;;;;;;;;;;5032796;28;20105;-65
2022/08/10 06:42:14;;;;;;;2.63;2.00;;;;;;;;;;5050541;28;20053;-65
2022/08/10 06:45:02;;;;;;;2.13;1.73;;;;;;;;;;5038278;28;20058;-66
2022/08/10 06:47:52;;;;;;;2.00;1.70;;;;;;;;;;5014946;28;20058;-67
2022/08/10 06:50:22;;;;;;;4.40;1.50;;;;;;;;;;5015574;28;20054;-66
2022/08/10 06:53:17;;;;;;;3.90;1.90;;;;;;;;;;5026387;28;20045;-66
2022/08/10 06:55:56;;;;;;;2.40;1.75;;;;;;;;;;5028220;28;20069;-66
2022/08/10 06:58:37;;;;;;;1.70;1.60;;;;;;;;;;5011692;28;20088;-65
2022/08/10 07:01:05;;;;;;;3.17;1.80;;;;;;;;;;5011311;28;20042;-66
2022/08/10 07:03:38;;;;;;;3.97;1.70;;;;;;;;;;5027919;28;20049;-66
2022/08/10 07:06:05;;;;;;;3.70;1.80;;;;;;;;;;5027771;28;20060;-65
2022/08/10 07:08:32;;;;;;;5.57;1.90;;;;;;;;;;5014445;28;20052;-66
2022/08/10 07:11:00;;;;;;;2.20;1.50;;;;;;;;;;5027277;28;20108;-67
2022/08/10 07:13:27;;;;;;;1.77;1.50;;;;;;;;;;5027317;28;20109;-65
2022/08/10 07:16:15;;;;;;;2.70;1.80;;;;;;;;;;5011426;28;20115;-66
2022/08/10 07:18:42;;;;;;;6.15;1.90;;;;;;;;;;5011981;28;20164;-69
2022/08/10 07:21:09;;;;;;;5.07;2.63;;;;;;;;;;4985197;28;20045;-69
2022/08/10 07:23:36;;;;;;;5.03;1.92;;;;;;;;;;5005349;28;20049;-68
2022/08/10 07:26:23;;;;;;;2.50;1.58;;;;;;;;;;5000383;28;20050;-68
2022/08/10 07:28:51;;;;;;;3.78;1.70;;;;;;;;;;4990404;28;20489;-68
2022/08/10 07:31:22;;;;;;;1.95;1.73;;;;;;;;;;4989153;28;20046;-68
2022/08/10 07:34:09;;;;;;;1.60;1.50;;;;;;;;;;5006171;28;20054;-69
2022/08/10 07:36:36;;;;;;;2.72;1.70;;;;;;;;;;4982733;28;20049;-69
2022/08/10 07:39:03;;;;;;;1.95;1.50;;;;;;;;;;5005409;28;20563;-69
2022/08/10 07:41:31;;;;;;;3.75;1.40;;;;;;;;;;5003041;28;20616;-69
2022/08/10 07:43:58;;;;;;;3.45;1.60;;;;;;;;;;5001247;28;20178;-69
2022/08/10 07:46:25;;;;;;;4.30;1.27;;;;;;;;;;4993875;28;20042;-67
2022/08/10 07:49:19;;;;;;;2.95;1.65;;;;;;;;;;4997161;28;20066;-69
2022/08/10 07:51:50;;;;;;;2.60;1.42;;;;;;;;;;4998113;28;20050;-67
2022/08/10 07:54:21;;;;;;;2.92;1.10;;;;;;;;;;5016245;28;20496;-67
2022/08/10 07:56:57;;;;;;;2.53;1.25;;;;;;;;;;4998461;28;20073;-73
2022/08/10 07:59:37;;;;;;;2.13;1.60;;;;;;;;;;4999124;28;20064;-75
2022/08/10 08:02:49;;;;;;;3.45;1.50;;;;;;;;;;4979286;28;20045;-77
2022/08/10 08:05:43;;;;;;;5.15;1.77;;;;;;;;;;5001524;28;20057;-76
2022/08/10 08:08:32;;;;;;;3.80;1.40;;;;;;;;;;4994977;28;20065;-73
2022/08/10 08:11:09;;;;;;;3.53;1.58;;;;;;;;;;5010479;28;20053;-74
2022/08/10 08:13:54;;;;;;;2.33;1.50;;;;;;;;;;4992653;28;20428;-73
2022/08/10 08:16:37;;;;;;;2.17;1.42;;;;;;;;;;4983232;28;20058;-77
2022/08/10 08:19:09;;;;;;;2.85;1.60;;;;;;;;;;5023781;23;20038;-69
2022/08/10 08:21:56;;;;;;;1.70;1.20;;;;;;;;;;5018048;28;20045;-73
2022/08/10 08:24:43;;;;;;;3.85;1.65;;;;;;;;;;5018406;28;20054;-67
2022/08/10 08:27:14;;;;;;;2.97;2.20;;;;;;;;;;5020931;28;20052;-69
2022/08/10 08:29:42;;;;;;;2.22;1.30;;;;;;;;;;5036609;28;20049;-71
2022/08/10 08:32:08;;;;;;;3.47;1.40;;;;;;;;;;5016719;28;20060;-71
2022/08/10 08:34:37;;;;;;;2.97;2.03;;;;;;;;;;5002674;28;20053;-72
2022/08/10 08:37:06;;;;;;;3.28;1.15;;;;;;;;;;5019160;28;20527;-71
2022/08/10 08:39:35;;;;;;;1.95;1.30;;;;;;;;;;5017757;28;20049;-70
2022/08/10 08:42:13;;;;;;;1.48;1.13;;;;;;;;;;5003000;28;20508;-72
2022/08/10 08:45:22;;;;;;;11.63;1.60;;;;;;;;;;4993650;28;20074;-72
2022/08/10 08:48:27;;;;;;;2.75;0.90;;;;;;;;;;5007599;28;20054;-76
2022/08/10 08:51:32;;;;;;;1.45;1.35;;;;;;;;;;5005640;28;20471;-72
2022/08/10 08:54:23;;;;;;;1.90;1.25;;;;;;;;;;5001725;28;20100;-75
2022/08/10 08:57:02;;;;;;;2.75;1.20;;;;;;;;;;5003662;28;20049;-73
2022/08/10 08:59:53;;;;;;;3.13;1.10;;;;;;;;;;5017697;28;20046;-70
2022/08/10 09:02:38;;;;;;;1.92;1.10;;;;;;;;;;5022637;28;20054;-72
2022/08/10 09:05:12;;;;;;;4.13;1.20;;;;;;;;;;5020905;28;20061;-72
2022/08/10 09:08:01;;;;;;;1.25;1.13;;;;;;;;;;5019730;28;20410;-72
2022/08/10 09:10:47;;;;;;;3.20;1.40;;;;;;;;;;5024657;28;20052;-67
2022/08/10 09:13:40;;;;;;;2.88;1.02;;;;;;;;;;5020078;28;20578;-67
2022/08/10 09:16:47;;;;;;;1.25;1.00;;;;;;;;;;5016956;28;20478;-67
2022/08/10 09:19:44;;;;;;;2.47;1.23;;;;;;;;;;5021335;28;20501;-67
2022/08/10 09:22:29;;;;;;;3.20;1.20;;;;;;;;;;5022263;28;20042;-66
2022/08/10 09:25:19;;;;;;;4.55;1.20;;;;;;;;;;5016970;28;20092;-66
2022/08/10 09:28:05;;;;;;;3.33;1.20;;;;;;;;;;5018993;28;20061;-67
2022/08/10 09:30:38;;;;;;;1.27;1.00;;;;;;;;;;5031040;28;20084;-67
2022/08/10 09:33:15;;;;;;;2.08;1.10;;;;;;;;;;5012691;28;20064;-67
2022/08/10 09:36:15;;;;;;;3.30;1.05;;;;;;;;;;5009548;28;20046;-66
2022/08/10 09:39:01;;;;;;;2.28;1.00;;;;;;;;;;5014973;28;20054;-67
2022/08/10 09:41:50;;;;;;;3.15;1.23;;;;;;;;;;5023165;28;20041;-67
2022/08/10 09:44:44;;;;;;;1.45;0.90;;;;;;;;;;5020209;28;20045;-67
2022/08/10 09:47:55;;;;;;;3.78;1.58;;;;;;;;;;5013084;28;20570;-67
2022/08/10 09:50:43;;;;;;;4.30;1.30;;;;;;;;;;5022658;28;20037;-66
2022/08/10 09:53:57;;;;;;;1.77;0.88;;;;;;;;;;5022831;28;20042;-67
2022/08/10 09:56:35;;;;;;;2.90;1.10;;;;;;;;;;5023027;28;20042;-67
2022/08/10 09:59:39;;;;;;;2.28;1.00;;;;;;;;;;5021560;28;20049;-67
2022/08/10 10:02:54;;;;;;;6.75;1.55;;;;;;;;;;5020570;28;20497;-67
2022/08/10 10:05:45;;;;;;;1.27;0.90;;;;;;;;;;5022136;28;20100;-67
2022/08/10 10:08:40;;;;;;;1.55;0.90;;;;;;;;;;5020268;28;20069;-67
2022/08/10 10:11:11;;;;;;;4.63;1.30;;;;;;;;;;5018440;28;20129;-67
2022/08/10 10:14:04;;;;;;;5.32;1.52;;;;;;;;;;5021914;28;20057;-67
2022/08/10 10:17:02;;;;;;;2.75;1.00;;;;;;;;;;5023458;28;20042;-67
2022/08/10 10:19:47;;;;;;;4.28;1.10;;;;;;;;;;5023221;28;20052;-67
2022/08/10 10:22:36;;;;;;;5.57;1.10;;;;;;;;;;5021958;28;20508;-68
2022/08/10 10:25:17;;;;;;;4.88;1.35;;;;;;;;;;5009980;28;20064;-67
2022/08/10 10:28:01;;;;;;;4.63;1.30;;;;;;;;;;5022358;28;20137;-67
2022/08/10 10:30:35;;;;;;;2.25;0.90;;;;;;;;;;5021231;28;20054;-67
2022/08/10 10:33:11;;;;;;;4.88;1.50;;;;;;;;;;5012057;28;20056;-67
2022/08/10 10:35:43;;;;;;;1.95;1.00;;;;;;;;;;5029968;28;20064;-67
2022/08/10 10:38:10;;;;;;;3.42;1.20;;;;;;;;;;5019823;28;20050;-67
2022/08/10 10:40:52;;;;;;;2.25;1.05;;;;;;;;;;5024975;28;20515;-67
2022/08/10 10:43:37;;;;;;;0.98;0.90;;;;;;;;;;5027523;28;20042;-67
2022/08/10 10:46:16;;;;;;;3.53;1.23;;;;;;;;;;5021051;28;20057;-68
2022/08/10 10:49:13;;;;;;;1.73;1.20;;;;;;;;;;5022440;28;20053;-67
2022/08/10 10:52:02;;;;;;;2.42;1.00;;;;;;;;;;5020086;28;20050;-68
2022/08/10 10:54:48;;;;;;;1.48;0.90;;;;;;;;;;5017389;28;20045;-68
2022/08/10 10:57:38;;;;;;;2.00;1.17;;;;;;;;;;5023446;28;20382;-67
2022/08/10 11:00:49;;;;;;;1.15;0.90;;;;;;;;;;5030932;28;20448;-67
2022/08/10 11:03:37;;;;;;;1.60;0.90;;;;;;;;;;5009570;28;20042;-67
2022/08/10 11:06:26;;;;;;;2.42;1.10;;;;;;;;;;5023080;28;20178;-67
2022/08/10 11:09:09;;;;;;;3.25;1.08;;;;;;;;;;5020816;28;20064;-67
2022/08/10 11:11:57;;;;;;;1.80;0.90;;;;;;;;;;5017425;28;20057;-68
2022/08/10 11:14:43;;;;;;;2.78;1.10;;;;;;;;;;5019029;28;20045;-67
2022/08/10 11:17:14;;;;;;;1.80;1.05;;;;;;;;;;5028314;28;20504;-68
2022/08/10 11:20:02;;;;;;;2.55;1.08;;;;;;;;;;5027016;28;20053;-67
2022/08/10 11:22:39;;;;;;;3.03;1.00;;;;;;;;;;5014020;28;20054;-66
2022/08/10 11:25:13;;;;;;;1.00;0.90;;;;;;;;;;5046084;28;20115;-68
2022/08/10 11:27:50;;;;;;;1.25;0.90;;;;;;;;;;5031969;28;20053;-66
2022/08/10 11:30:30;;;;;;;6.03;1.15;;;;;;;;;;5042636;28;20049;-67
2022/08/10 11:33:10;;;;;;;3.17;1.08;;;;;;;;;;5033021;28;20041;-67
2022/08/10 11:35:46;;;;;;;2.65;0.95;;;;;;;;;;5044441;28;20157;-67
2022/08/10 11:38:56;;;;;;;2.35;1.05;;;;;;;;;;5015896;28;20056;-67
2022/08/10 11:41:43;;;;;;;1.83;1.27;;;;;;;;;;5045850;28;20045;-67
2022/08/10 11:44:36;;;;;;;1.23;1.00;;;;;;;;;;5032787;28;20178;-67
2022/08/10 11:47:23;;;;;;;1.48;1.20;;;;;;;;;;5031888;28;20057;-66
2022/08/10 11:49:58;;;;;;;1.27;0.95;;;;;;;;;;5047390;28;20447;-67
2022/08/10 11:52:39;;;;;;;1.13;1.02;;;;;;;;;;5041778;28;20045;-66
2022/08/10 11:55:28;;;;;;;4.38;1.80;;;;;;;;;;5010844;28;20050;-66
2022/08/10 11:57:57;;;;;;;2.63;1.30;;;;;;;;;;5044204;28;20054;-66
2022/08/10 12:00:24;;;;;;;2.50;1.10;;;;;;;;;;5018957;28;20050;-64
2022/08/10 12:03:01;;;;;;;3.90;1.40;;;;;;;;;;5017080;28;20056;-65
2022/08/10 12:05:30;;;;;;;2.47;1.13;;;;;;;;;;5023305;28;20515;-65
2022/08/10 12:08:18;;;;;;;3.17;0.98;;;;;;;;;;5039608;28;20053;-65
2022/08/10 12:11:04;;;;;;;3.85;1.10;;;;;;;;;;5007187;28;20089;-66
2022/08/10 12:13:46;;;;;;;3.03;1.10;;;;;;;;;;5019534;28;20046;-65
2022/08/10 12:16:36;;;;;;;1.35;0.95;;;;;;;;;;5021344;28;20057;-65
2022/08/10 12:19:30;;;;;;;3.30;1.00;;;;;;;;;;5018986;28;20060;-64
2022/08/10 12:22:24;;;;;;;3.95;1.15;;;;;;;;;;5018659;28;20050;-65
2022/08/10 12:24:52;;;;;;;3.88;1.40;;;;;;;;;;5019826;28;20057;-65
2022/08/10 12:27:30;;;;;;;1.63;0.90;;;;;;;;;;5001659;28;20099;-65
2022/08/10 12:30:08;;;;;;;2.60;1.15;;;;;;;;;;5024336;28;20049;-65
2022/08/10 12:33:15;;;;;;;2.05;1.23;;;;;;;;;;5037411;28;20052;-65
2022/08/10 12:36:06;;;;;;;1.45;1.15;;;;;;;;;;5013050;28;20046;-65
2022/08/10 12:39:03;;;;;;;3.60;1.23;;;;;;;;;;5022487;28;20551;-65
2022/08/10 12:41:38;;;;;;;2.35;1.15;;;;;;;;;;5018735;28;20514;-66
2022/08/10 12:44:18;;;;;;;1.25;0.88;;;;;;;;;;5021839;28;20072;-66
2022/08/10 12:46:56;;;;;;;1.33;1.00;;;;;;;;;;5019893;28;20046;-65
2022/08/10 12:49:33;;;;;;;2.63;0.90;;;;;;;;;;5022100;28;20045;-65
2022/08/10 12:52:28;;;;;;;1.65;0.95;;;;;;;;;;5020734;28;20045;-66
2022/08/10 12:54:55;;;;;;;2.45;0.73;;;;;;;;;;5021384;28;20056;-66
2022/08/10 12:57:24;;;;;;;1.27;0.98;;;;;;;;;;5040496;28;20056;-66
2022/08/10 12:59:52;;;;;;;3.53;1.00;;;;;;;;;;5020814;28;20056;-65
2022/08/10 13:02:38;;;;;;;2.65;1.35;;;;;;;;;;5020530;28;20053;-64
2022/08/10 13:05:09;;;;;;;2.53;1.23;;;;;;;;;;5019419;28;20055;-65
2022/08/10 13:07:38;;;;;;;2.05;1.23;;;;;;;;;;5031801;28;20065;-66
2022/08/10 13:10:24;;;;;;;1.10;0.88;;;;;;;;;;5009514;28;20072;-66
2022/08/10 13:12:53;;;;;;;1.15;1.00;;;;;;;;;;5025151;28;20072;-66
2022/08/10 13:15:25;;;;;;;1.83;1.10;;;;;;;;;;5027744;28;20059;-65
2022/08/10 13:18:12;;;;;;;1.15;1.00;;;;;;;;;;5022691;28;20057;-65
2022/08/10 13:20:49;;;;;;;1.88;0.80;;;;;;;;;;5026133;28;20081;-66
2022/08/10 13:23:18;;;;;;;1.85;1.00;;;;;;;;;;5039593;28;20257;-65
2022/08/10 13:25:47;;;;;;;1.27;0.85;;;;;;;;;;5022119;28;20053;-67
2022/08/10 13:28:16;;;;;;;2.50;0.90;;;;;;;;;;5024071;28;20085;-64
2022/08/10 13:31:08;;;;;;;2.05;0.95;;;;;;;;;;5013086;28;20119;-64
2022/08/10 13:33:47;;;;;;;1.67;1.13;;;;;;;;;;5032114;28;20041;-65
2022/08/10 13:36:37;;;;;;;2.22;0.88;;;;;;;;;;5024270;28;20068;-65
2022/08/10 13:39:04;;;;;;;2.05;1.08;;;;;;;;;;5020660;28;20056;-67
2022/08/10 13:41:42;;;;;;;1.75;0.70;;;;;;;;;;5020140;28;20052;-65
2022/08/10 13:44:12;;;;;;;1.75;1.10;;;;;;;;;;5040527;28;20044;-65
2022/08/10 13:46:40;;;;;;;1.45;0.98;;;;;;;;;;5027877;28;20056;-65
2022/08/10 13:49:08;;;;;;;1.15;0.90;;;;;;;;;;5026017;28;20476;-65
2022/08/10 13:51:37;;;;;;;1.40;0.80;;;;;;;;;;5025508;28;20089;-65
2022/08/10 13:54:37;;;;;;;3.13;1.00;;;;;;;;;;5023790;28;20399;-65
2022/08/10 13:57:04;;;;;;;2.10;0.95;;;;;;;;;;5020344;28;20046;-64
2022/08/10 13:59:32;;;;;;;2.55;0.90;;;;;;;;;;5020902;28;20057;-65
2022/08/10 14:02:35;;;;;;;1.02;0.93;;;;;;;;;;5023654;28;20046;-64
2022/08/10 14:05:02;;;;;;;2.63;0.98;;;;;;;;;;5021183;28;20050;-66
2022/08/10 14:07:29;;;;;;;2.15;0.93;;;;;;;;;;5013946;28;20042;-65
2022/08/10 14:10:08;;;;;;;2.92;1.10;;;;;;;;;;5020235;28;20444;-65
2022/08/10 14:12:40;;;;;;;2.38;1.10;;;;;;;;;;5018601;28;20489;-65
2022/08/10 14:15:12;;;;;;;1.58;1.10;;;;;;;;;;5023530;28;20187;-66
2022/08/10 14:17:40;;;;;;;2.58;0.90;;;;;;;;;;5007510;28;20046;-66
2022/08/10 14:20:10;;;;;;;2.88;1.00;;;;;;;;;;5039436;23;20054;-68
2022/08/10 14:22:42;;;;;;;0.93;0.93;;;;;;;;;;5005048;28;20049;-68
2022/08/10 14:25:13;;;;;;;3.67;0.73;;;;;;;;;;5016365;28;20467;-68
2022/08/10 14:27:41;;;;;;;;;;;;;;;;;;5007036;28;20053;-68
2022/08/10 14:30:28;;;;;;;0.90;0.80;;;;;;;;;;5018857;28;19926;-68
2022/08/10 14:32:56;;;;;;;1.90;0.82;;;;;;;;;;5001912;28;20062;-69
2022/08/10 14:35:23;;;;;;;1.00;0.90;;;;;;;;;;5005233;28;20057;-68
2022/08/10 14:38:14;;;;;;;2.42;0.90;;;;;;;;;;5003574;28;20046;-68
2022/08/10 14:40:43;;;;;;;1.67;0.95;;;;;;;;;;5001810;28;20042;-68
2022/08/10 14:43:22;;;;;;;4.00;1.10;;;;;;;;;;5007440;28;20041;-69
2022/08/10 14:45:59;;;;;;;2.70;0.82;;;;;;;;;;5000103;28;20053;-68
2022/08/10 14:48:32;;;;;;;0.80;0.70;;;;;;;;;;5004177;28;20053;-68
2022/08/10 14:50:59;;;;;;;2.00;0.90;;;;;;;;;;5004048;28;20057;-68
2022/08/10 14:53:31;;;;;;;1.70;1.23;;;;;;;;;;4985321;28;20042;-68
2022/08/10 14:56:16;;;;;;;1.70;0.93;;;;;;;;;;5004103;28;20500;-68
2022/08/10 14:58:51;;;;;;;1.27;0.82;;;;;;;;;;5019657;28;20508;-68
2022/08/10 15:01:34;;;;;;;2.88;0.75;;;;;;;;;;4999427;28;20586;-68
2022/08/10 15:04:22;;;;;;;2.78;0.80;;;;;;;;;;5006980;28;20115;-68
2022/08/10 15:06:56;;;;;;;0.85;0.77;;;;;;;;;;5004028;28;20057;-68
2022/08/10 15:09:24;;;;;;;1.38;0.90;;;;;;;;;;5004277;28;20064;-69
2022/08/10 15:11:54;;;;;;;3.58;1.00;;;;;;;;;;5001944;28;20046;-70
2022/08/10 15:14:45;;;;;;;2.38;0.98;;;;;;;;;;5003911;28;20816;-66
2022/08/10 15:17:24;;;;;;;1.63;0.93;;;;;;;;;;4987249;28;20054;-67
2022/08/10 15:19:57;;;;;;;1.20;0.90;;;;;;;;;;4986466;28;20687;-66
2022/08/10 15:22:39;;;;;;;1.42;1.10;;;;;;;;;;4994734;28;20138;-67
2022/08/10 15:25:07;;;;;;;3.38;0.85;;;;;;;;;;5007980;28;20049;-67
2022/08/10 15:27:51;;;;;;;3.08;1.10;;;;;;;;;;5005423;28;20053;-66
2022/08/10 15:30:22;;;;;;;3.08;1.00;;;;;;;;;;5005775;28;20046;-67
2022/08/10 15:38:35;;;;;;;2.65;1.25;;;;;;;;;;5000164;28;20047;-67
2022/08/10 15:41:02;;;;;;;3.63;1.00;;;;;;;;;;5002073;28;20056;-67
2022/08/10 15:43:36;;;;;;;2.90;0.85;;;;;;;;;;4997302;28;20050;-67
2022/08/10 15:46:19;;;;;;;2.58;1.52;;;;;;;;;;5004846;28;20057;-67
2022/08/10 15:48:52;;;;;;;1.88;1.15;;;;;;;;;;5005075;28;20058;-67
2022/08/10 15:51:23;;;;;;;2.20;1.10;;;;;;;;;;4999449;28;20533;-70
2022/08/10 15:53:58;;;;;;;1.13;0.88;;;;;;;;;;4999622;28;20745;-66